Time;durP1;ratioP1;P1;durP2;ratioP2;P2;SDS_P1;SDS_P2;PMS_P1;PMS_P2;Temp;Humidity;BMP_temperature;BMP_pressure;BME280_temperature;BME280_humidity;BME280_pressure;Samples;Min_cycle;Max_cycle;Signal;HPM_P1;HPM_P2
2023/06/10 00:02:03;;;;;;;2.90;1.92;;;;;;;;;;5107546;28;20050;-61
2023/06/10 00:04:30;;;;;;;5.60;2.08;;;;;;;;;;5107237;28;20023;-61
2023/06/10 00:06:57;;;;;;;5.70;2.20;;;;;;;;;;5107462;28;20493;-62
2023/06/10 00:09:23;;;;;;;3.90;1.90;;;;;;;;;;5105477;28;20028;-61
2023/06/10 00:11:50;;;;;;;4.38;2.58;;;;;;;;;;5112579;28;20038;-61
2023/06/10 00:14:17;;;;;;;2.70;2.15;;;;;;;;;;5112828;28;20028;-61
2023/06/10 00:16:44;;;;;;;4.00;2.42;;;;;;;;;;5112661;28;20098;-61
2023/06/10 00:19:13;;;;;;;3.08;2.17;;;;;;;;;;5110852;28;20035;-63
2023/06/10 00:21:40;;;;;;;2.65;2.00;;;;;;;;;;5097786;28;20485;-61
2023/06/10 00:24:11;;;;;;;4.78;2.30;;;;;;;;;;5107285;28;20355;-61
2023/06/10 00:26:39;;;;;;;2.90;2.00;;;;;;;;;;5107354;28;20039;-61
2023/06/10 00:29:06;;;;;;;8.73;3.00;;;;;;;;;;5107128;28;20055;-61
2023/06/10 00:31:32;;;;;;;6.68;2.72;;;;;;;;;;5107198;28;20439;-61
2023/06/10 00:33:59;;;;;;;4.60;2.05;;;;;;;;;;5110683;28;20389;-60
2023/06/10 00:36:26;;;;;;;4.43;2.13;;;;;;;;;;5112571;28;20110;-60
2023/06/10 00:38:53;;;;;;;12.98;2.83;;;;;;;;;;5112088;28;20032;-61
2023/06/10 00:41:20;;;;;;;8.77;2.58;;;;;;;;;;5112481;28;20055;-60
2023/06/10 00:43:47;;;;;;;4.97;2.60;;;;;;;;;;5097348;28;20368;-60
2023/06/10 00:46:14;;;;;;;3.63;2.53;;;;;;;;;;5087584;28;20020;-61
2023/06/10 00:48:41;;;;;;;3.78;2.45;;;;;;;;;;5087190;28;20028;-61
2023/06/10 00:51:11;;;;;;;5.07;2.90;;;;;;;;;;5086667;28;20024;-61
2023/06/10 00:53:40;;;;;;;3.70;3.10;;;;;;;;;;5096221;28;20032;-60
2023/06/10 00:56:07;;;;;;;5.63;3.45;;;;;;;;;;5109890;28;20377;-60
2023/06/10 00:58:34;;;;;;;3.28;2.47;;;;;;;;;;5112501;28;20024;-61
2023/06/10 01:01:01;;;;;;;5.88;3.47;;;;;;;;;;5112155;28;20516;-61
2023/06/10 01:03:28;;;;;;;6.18;3.88;;;;;;;;;;5106532;28;20073;-61
2023/06/10 01:06:01;;;;;;;5.43;3.40;;;;;;;;;;5092037;28;20382;-60
2023/06/10 01:08:46;;;;;;;9.82;3.92;;;;;;;;;;5087692;28;20035;-61
2023/06/10 01:11:22;;;;;;;4.82;3.17;;;;;;;;;;5086519;28;20017;-61
2023/06/10 01:13:51;;;;;;;6.13;3.92;;;;;;;;;;5090814;28;20049;-60
2023/06/10 01:16:20;;;;;;;7.88;3.67;;;;;;;;;;5106829;28;20024;-61
2023/06/10 01:18:47;;;;;;;7.30;4.15;;;;;;;;;;5110695;28;20107;-61
2023/06/10 01:21:32;;;;;;;4.22;3.15;;;;;;;;;;5112146;28;20033;-61
2023/06/10 01:23:58;;;;;;;;;;;;;;;;;;5110793;28;20077;-61
2023/06/10 01:26:31;;;;;;;5.75;3.33;;;;;;;;;;5110767;28;19912;-60
2023/06/10 01:29:18;;;;;;;10.20;4.43;;;;;;;;;;5112200;28;20027;-61
2023/06/10 01:31:55;;;;;;;6.15;3.60;;;;;;;;;;5107925;28;20023;-61
2023/06/10 01:34:24;;;;;;;19.70;3.22;;;;;;;;;;5108638;28;20031;-61
2023/06/10 01:36:51;;;;;;;6.47;4.15;;;;;;;;;;5109582;28;20119;-61
2023/06/10 01:39:18;;;;;;;4.22;3.55;;;;;;;;;;5110421;28;20015;-61
2023/06/10 01:41:46;;;;;;;7.35;3.97;;;;;;;;;;5115072;28;20027;-60
2023/06/10 01:44:13;;;;;;;8.60;3.97;;;;;;;;;;5115458;28;20019;-60
2023/06/10 01:46:39;;;;;;;7.03;4.55;;;;;;;;;;5098846;28;20093;-61
2023/06/10 01:49:06;;;;;;;4.78;3.63;;;;;;;;;;5095015;28;20020;-60
2023/06/10 01:51:33;;;;;;;10.60;3.67;;;;;;;;;;5094647;28;20031;-61
2023/06/10 01:54:00;;;;;;;5.72;3.47;;;;;;;;;;5089609;28;20024;-61
2023/06/10 01:56:27;;;;;;;5.22;3.28;;;;;;;;;;5090343;28;20039;-61
2023/06/10 01:58:58;;;;;;;5.28;3.35;;;;;;;;;;5089468;28;20078;-60
2023/06/10 02:01:26;;;;;;;4.07;3.22;;;;;;;;;;5089232;28;20115;-61
2023/06/10 02:03:53;;;;;;;5.03;3.70;;;;;;;;;;5093841;28;20028;-61
2023/06/10 02:06:20;;;;;;;7.65;3.00;;;;;;;;;;5099561;28;20114;-61
2023/06/10 02:08:46;;;;;;;11.52;3.15;;;;;;;;;;5115103;28;20554;-61
2023/06/10 02:11:13;;;;;;;8.88;3.97;;;;;;;;;;5114931;28;20489;-61
2023/06/10 02:13:40;;;;;;;4.55;2.88;;;;;;;;;;5113510;28;20547;-61
2023/06/10 02:16:07;;;;;;;4.05;3.05;;;;;;;;;;5110209;28;20375;-61
2023/06/10 02:18:34;;;;;;;24.83;3.93;;;;;;;;;;5080913;28;20039;-61
2023/06/10 02:21:01;;;;;;;5.33;3.43;;;;;;;;;;5088954;28;20024;-61
2023/06/10 02:23:28;;;;;;;5.77;3.87;;;;;;;;;;5088352;28;20122;-61
2023/06/10 02:25:54;;;;;;;10.27;3.73;;;;;;;;;;5092275;28;20020;-61
2023/06/10 02:28:21;;;;;;;12.10;3.77;;;;;;;;;;5108160;28;20027;-61
2023/06/10 02:30:48;;;;;;;5.03;3.63;;;;;;;;;;5114687;28;20418;-61
2023/06/10 02:33:14;;;;;;;8.10;3.27;;;;;;;;;;5114663;28;20378;-61
2023/06/10 02:35:42;;;;;;;13.13;3.50;;;;;;;;;;5114535;28;20106;-61
2023/06/10 02:38:08;;;;;;;2.83;2.27;;;;;;;;;;5101009;28;20024;-61
2023/06/10 02:40:35;;;;;;;7.23;3.27;;;;;;;;;;5088630;28;20028;-61
2023/06/10 02:43:02;;;;;;;16.97;3.60;;;;;;;;;;5087392;28;20036;-60
2023/06/10 02:45:29;;;;;;;10.40;3.00;;;;;;;;;;5088409;28;20032;-60
2023/06/10 02:47:56;;;;;;;7.37;3.80;;;;;;;;;;5091824;28;20534;-61
2023/06/10 02:50:22;;;;;;;4.40;3.00;;;;;;;;;;5093993;28;20517;-61
2023/06/10 02:52:50;;;;;;;7.53;3.50;;;;;;;;;;5093877;28;20035;-61
2023/06/10 02:55:16;;;;;;;6.70;3.83;;;;;;;;;;5093850;28;20047;-61
2023/06/10 02:57:43;;;;;;;4.03;2.63;;;;;;;;;;5093828;28;20024;-61
2023/06/10 03:00:10;;;;;;;3.90;2.90;;;;;;;;;;5092154;28;20054;-61
2023/06/10 03:02:40;;;;;;;7.10;3.53;;;;;;;;;;5087924;28;20036;-60
2023/06/10 03:05:10;;;;;;;7.40;3.53;;;;;;;;;;5088131;28;20399;-61
2023/06/10 03:07:37;;;;;;;8.80;3.03;;;;;;;;;;5087995;28;20379;-60
2023/06/10 03:10:04;;;;;;;9.07;3.47;;;;;;;;;;5102143;28;20483;-61
2023/06/10 03:12:31;;;;;;;3.20;2.33;;;;;;;;;;5113873;28;20032;-61
2023/06/10 03:14:58;;;;;;;5.23;2.63;;;;;;;;;;5113962;28;20019;-61
2023/06/10 03:17:25;;;;;;;4.93;3.03;;;;;;;;;;5112258;28;20028;-60
2023/06/10 03:19:52;;;;;;;13.70;3.03;;;;;;;;;;5113517;28;20459;-61
2023/06/10 03:22:18;;;;;;;8.33;2.63;;;;;;;;;;5111814;28;20516;-61
2023/06/10 03:24:46;;;;;;;4.80;2.97;;;;;;;;;;5108084;28;20519;-61
2023/06/10 03:27:13;;;;;;;7.33;3.43;;;;;;;;;;5093239;28;20024;-61
2023/06/10 03:29:40;;;;;;;5.77;3.13;;;;;;;;;;5087799;28;20028;-61
2023/06/10 03:32:07;;;;;;;4.50;2.57;;;;;;;;;;5088320;28;20058;-61
2023/06/10 03:34:34;;;;;;;6.77;2.90;;;;;;;;;;5092960;28;20016;-61
2023/06/10 03:37:01;;;;;;;8.47;2.93;;;;;;;;;;5101197;28;20031;-61
2023/06/10 03:39:29;;;;;;;7.03;3.10;;;;;;;;;;5113357;28;20037;-61
2023/06/10 03:41:57;;;;;;;5.87;2.80;;;;;;;;;;5113154;28;20073;-60
2023/06/10 03:44:28;;;;;;;3.00;2.30;;;;;;;;;;5112143;28;20502;-61
2023/06/10 03:46:56;;;;;;;17.30;3.73;;;;;;;;;;5102559;28;20417;-61
2023/06/10 03:49:26;;;;;;;8.03;3.07;;;;;;;;;;5087182;28;20035;-60
2023/06/10 03:51:53;;;;;;;8.30;3.47;;;;;;;;;;5086827;28;20032;-61
2023/06/10 03:54:20;;;;;;;8.20;2.97;;;;;;;;;;5086718;28;20020;-61
2023/06/10 03:56:48;;;;;;;4.57;2.43;;;;;;;;;;5092118;28;20386;-61
2023/06/10 03:59:14;;;;;;;3.93;2.77;;;;;;;;;;5112720;28;20028;-60
2023/06/10 04:01:41;;;;;;;3.70;2.70;;;;;;;;;;5112995;28;20049;-60
2023/06/10 04:04:08;;;;;;;5.53;3.13;;;;;;;;;;5113205;28;20015;-60
2023/06/10 04:06:35;;;;;;;4.80;3.23;;;;;;;;;;5112590;28;20023;-61
2023/06/10 04:09:03;;;;;;;4.80;2.40;;;;;;;;;;5091019;28;20028;-61
2023/06/10 04:11:29;;;;;;;8.63;3.70;;;;;;;;;;5086857;28;20392;-60
2023/06/10 04:13:56;;;;;;;4.97;3.13;;;;;;;;;;5086948;28;20878;-61
2023/06/10 04:16:23;;;;;;;3.60;2.07;;;;;;;;;;5086880;28;20027;-61
2023/06/10 04:18:50;;;;;;;4.43;2.97;;;;;;;;;;5101678;28;20030;-62
2023/06/10 04:21:17;;;;;;;3.57;2.77;;;;;;;;;;5112752;28;20020;-61
2023/06/10 04:23:43;;;;;;;7.17;2.53;;;;;;;;;;5112730;28;20065;-60
2023/06/10 04:26:12;;;;;;;8.47;2.93;;;;;;;;;;5112944;28;20023;-60
2023/06/10 04:28:39;;;;;;;4.63;2.90;;;;;;;;;;5109167;28;20063;-60
2023/06/10 04:31:05;;;;;;;4.37;2.67;;;;;;;;;;5106719;28;20429;-60
2023/06/10 04:33:32;;;;;;;6.53;4.13;;;;;;;;;;5107122;28;20556;-61
2023/06/10 04:35:59;;;;;;;6.07;3.40;;;;;;;;;;5107127;28;20420;-61
2023/06/10 04:38:26;;;;;;;5.37;3.13;;;;;;;;;;5106440;28;20050;-61
2023/06/10 04:40:53;;;;;;;12.80;4.87;;;;;;;;;;5089877;28;20028;-62
2023/06/10 04:43:20;;;;;;;7.73;3.73;;;;;;;;;;5092039;28;20028;-60
2023/06/10 04:45:47;;;;;;;5.57;3.60;;;;;;;;;;5091541;28;20039;-61
2023/06/10 04:48:14;;;;;;;5.97;4.53;;;;;;;;;;5091976;28;20035;-60
2023/06/10 04:50:41;;;;;;;7.73;4.47;;;;;;;;;;5107393;28;20390;-61
2023/06/10 04:53:08;;;;;;;4.97;3.73;;;;;;;;;;5108539;28;20024;-60
2023/06/10 04:55:36;;;;;;;6.47;3.13;;;;;;;;;;5106840;28;20023;-61
2023/06/10 04:58:02;;;;;;;8.30;4.27;;;;;;;;;;5106622;28;20103;-60
2023/06/10 05:00:29;;;;;;;12.87;4.50;;;;;;;;;;5095568;28;20027;-60
2023/06/10 05:02:56;;;;;;;6.93;4.20;;;;;;;;;;5089175;28;20040;-61
2023/06/10 05:05:23;;;;;;;16.67;3.97;;;;;;;;;;5091247;28;20082;-61
2023/06/10 05:07:50;;;;;;;5.00;4.07;;;;;;;;;;5095321;28;20514;-61
2023/06/10 05:10:16;;;;;;;5.57;4.20;;;;;;;;;;5101738;28;20529;-60
2023/06/10 05:12:43;;;;;;;8.47;4.93;;;;;;;;;;5116231;28;20498;-60
2023/06/10 05:15:10;;;;;;;6.90;4.50;;;;;;;;;;5113168;28;20087;-61
2023/06/10 05:17:37;;;;;;;19.47;6.80;;;;;;;;;;5110611;28;20047;-60
2023/06/10 05:20:04;;;;;;;6.60;5.10;;;;;;;;;;5108992;28;20032;-60
2023/06/10 05:22:31;;;;;;;10.00;4.27;;;;;;;;;;5100921;28;20071;-61
2023/06/10 05:24:58;;;;;;;8.07;5.10;;;;;;;;;;5112367;28;20374;-60
2023/06/10 05:27:25;;;;;;;13.23;4.50;;;;;;;;;;5116014;28;20481;-61
2023/06/10 05:29:52;;;;;;;8.00;4.30;;;;;;;;;;5115857;28;20030;-61
2023/06/10 05:32:19;;;;;;;6.33;4.57;;;;;;;;;;5099852;28;20028;-60
2023/06/10 05:34:45;;;;;;;8.07;5.17;;;;;;;;;;5095396;28;20095;-60
2023/06/10 05:37:13;;;;;;;8.07;5.70;;;;;;;;;;5093215;28;20035;-60
2023/06/10 05:39:40;;;;;;;5.80;4.50;;;;;;;;;;5089595;28;20030;-60
2023/06/10 05:42:08;;;;;;;8.43;5.07;;;;;;;;;;5096922;28;20138;-60
2023/06/10 05:44:35;;;;;;;6.90;5.03;;;;;;;;;;5110191;28;20038;-60
2023/06/10 05:47:01;;;;;;;6.97;4.87;;;;;;;;;;5111276;28;20020;-60
2023/06/10 05:49:28;;;;;;;6.63;5.37;;;;;;;;;;5115426;28;20031;-60
2023/06/10 05:51:57;;;;;;;5.70;4.10;;;;;;;;;;5113391;28;20015;-60
2023/06/10 05:54:24;;;;;;;5.80;4.27;;;;;;;;;;5095139;28;20032;-60
2023/06/10 05:56:50;;;;;;;6.57;4.27;;;;;;;;;;5094880;28;20053;-60
2023/06/10 05:59:17;;;;;;;6.17;5.23;;;;;;;;;;5093646;28;20395;-60
2023/06/10 06:01:44;;;;;;;14.10;5.93;;;;;;;;;;5089660;28;20039;-60
2023/06/10 06:04:11;;;;;;;6.57;3.90;;;;;;;;;;5090730;28;20467;-60
2023/06/10 06:06:40;;;;;;;9.87;5.43;;;;;;;;;;5089734;28;20028;-60
2023/06/10 06:09:07;;;;;;;10.87;5.63;;;;;;;;;;5089694;28;20024;-60
2023/06/10 06:11:34;;;;;;;8.97;5.50;;;;;;;;;;5094746;28;20031;-60
2023/06/10 06:14:01;;;;;;;7.23;6.00;;;;;;;;;;5099228;28;20020;-61
2023/06/10 06:16:28;;;;;;;8.53;5.30;;;;;;;;;;5109993;28;20118;-61
2023/06/10 06:18:55;;;;;;;9.70;5.90;;;;;;;;;;5113998;28;20024;-60
2023/06/10 06:21:21;;;;;;;8.60;6.43;;;;;;;;;;5114711;28;20027;-60
2023/06/10 06:23:48;;;;;;;10.57;6.33;;;;;;;;;;5103303;28;20505;-60
2023/06/10 06:26:15;;;;;;;9.23;6.33;;;;;;;;;;5089363;28;20028;-60
2023/06/10 06:28:42;;;;;;;11.83;7.20;;;;;;;;;;5089201;28;20078;-60
2023/06/10 06:31:08;;;;;;;7.23;5.83;;;;;;;;;;5088975;28;20028;-60
2023/06/10 06:33:35;;;;;;;15.30;6.70;;;;;;;;;;5094949;28;20675;-60
2023/06/10 06:36:02;;;;;;;7.60;5.20;;;;;;;;;;5113769;28;20020;-60
2023/06/10 06:38:29;;;;;;;10.50;6.73;;;;;;;;;;5114811;28;20023;-60
2023/06/10 06:40:55;;;;;;;6.80;6.10;;;;;;;;;;5114609;28;20537;-60
2023/06/10 06:43:22;;;;;;;8.27;6.57;;;;;;;;;;5108346;28;20083;-61
2023/06/10 06:45:49;;;;;;;9.70;7.10;;;;;;;;;;5080215;28;20028;-60
2023/06/10 06:48:16;;;;;;;7.03;5.50;;;;;;;;;;5107334;28;20098;-61
2023/06/10 06:50:42;;;;;;;8.80;6.93;;;;;;;;;;5107260;28;20024;-61
2023/06/10 06:53:09;;;;;;;9.83;6.70;;;;;;;;;;5088924;28;20031;-61
2023/06/10 06:55:36;;;;;;;10.70;8.17;;;;;;;;;;5093362;28;20024;-60
2023/06/10 06:58:03;;;;;;;8.00;6.07;;;;;;;;;;5105670;28;20474;-60
2023/06/10 07:00:31;;;;;;;9.33;6.97;;;;;;;;;;5113960;28;20038;-60
2023/06/10 07:02:57;;;;;;;7.70;6.67;;;;;;;;;;5103670;28;20092;-60
2023/06/10 07:05:27;;;;;;;10.47;7.17;;;;;;;;;;5101363;28;20039;-60
2023/06/10 07:07:55;;;;;;;9.03;6.47;;;;;;;;;;5104593;28;20493;-60
2023/06/10 07:10:23;;;;;;;10.77;7.17;;;;;;;;;;5088117;28;20491;-61
2023/06/10 07:12:49;;;;;;;11.60;7.83;;;;;;;;;;5088673;28;20550;-60
2023/06/10 07:15:16;;;;;;;9.17;5.93;;;;;;;;;;5089900;28;20035;-60
2023/06/10 07:17:44;;;;;;;21.47;6.70;;;;;;;;;;5111638;28;20036;-60
2023/06/10 07:20:11;;;;;;;13.17;7.60;;;;;;;;;;5113954;28;20027;-60
2023/06/10 07:22:40;;;;;;;11.80;7.53;;;;;;;;;;5113183;28;20032;-60
2023/06/10 07:25:07;;;;;;;14.77;7.80;;;;;;;;;;5094919;28;20425;-60
2023/06/10 07:27:35;;;;;;;13.80;9.00;;;;;;;;;;5106695;28;20502;-60
2023/06/10 07:30:02;;;;;;;14.77;6.60;;;;;;;;;;5090599;28;20035;-60
2023/06/10 07:32:29;;;;;;;10.20;7.27;;;;;;;;;;5096863;28;20040;-60
2023/06/10 07:34:56;;;;;;;15.53;6.90;;;;;;;;;;5098756;28;20035;-60
2023/06/10 07:37:25;;;;;;;8.47;6.70;;;;;;;;;;5088110;28;20032;-60
2023/06/10 07:39:51;;;;;;;8.57;6.57;;;;;;;;;;5090551;28;20498;-61
2023/06/10 07:42:18;;;;;;;9.97;6.13;;;;;;;;;;5093018;28;20499;-60
2023/06/10 07:44:45;;;;;;;7.33;5.83;;;;;;;;;;5092870;28;20030;-61
2023/06/10 07:47:12;;;;;;;7.77;6.40;;;;;;;;;;5099067;28;20027;-60
2023/06/10 07:49:39;;;;;;;8.30;5.93;;;;;;;;;;5113416;28;20569;-60
2023/06/10 07:52:06;;;;;;;8.97;7.10;;;;;;;;;;5110784;28;20472;-60
2023/06/10 07:54:33;;;;;;;10.00;7.53;;;;;;;;;;5108242;28;20026;-60
2023/06/10 07:57:00;;;;;;;8.93;6.70;;;;;;;;;;5106514;28;20031;-61
2023/06/10 07:59:26;;;;;;;11.93;8.73;;;;;;;;;;5107519;28;20028;-60
2023/06/10 08:01:54;;;;;;;8.30;6.33;;;;;;;;;;5109856;28;20474;-60
2023/06/10 08:04:20;;;;;;;7.63;5.67;;;;;;;;;;5107397;28;20035;-60
2023/06/10 08:06:47;;;;;;;9.53;7.00;;;;;;;;;;5101606;28;20031;-61
2023/06/10 08:09:14;;;;;;;14.10;7.67;;;;;;;;;;5107957;28;20023;-60
2023/06/10 08:11:41;;;;;;;8.50;6.07;;;;;;;;;;5102876;28;20021;-61
2023/06/10 08:14:07;;;;;;;11.83;5.97;;;;;;;;;;5090540;28;20074;-60
2023/06/10 08:16:34;;;;;;;10.07;7.80;;;;;;;;;;5095504;28;20028;-60
2023/06/10 08:19:01;;;;;;;9.10;7.20;;;;;;;;;;5097286;28;20031;-61
2023/06/10 08:21:28;;;;;;;8.27;6.43;;;;;;;;;;5093777;28;20062;-60
2023/06/10 08:23:55;;;;;;;8.50;7.00;;;;;;;;;;5108606;28;20031;-60
2023/06/10 08:26:22;;;;;;;11.47;8.67;;;;;;;;;;5106757;28;20130;-60
2023/06/10 08:28:49;;;;;;;11.70;7.60;;;;;;;;;;5096975;28;20514;-61
2023/06/10 08:31:15;;;;;;;12.50;7.90;;;;;;;;;;5108244;28;20024;-60
2023/06/10 08:33:43;;;;;;;23.70;7.40;;;;;;;;;;5092393;28;20032;-60
2023/06/10 08:36:09;;;;;;;12.70;7.37;;;;;;;;;;5093402;28;20035;-61
2023/06/10 08:38:36;;;;;;;10.77;7.33;;;;;;;;;;5107170;28;20039;-61
2023/06/10 08:41:05;;;;;;;12.43;8.47;;;;;;;;;;5104451;28;20031;-60
2023/06/10 08:43:40;;;;;;;7.60;5.27;;;;;;;;;;5091460;28;20063;-60
2023/06/10 08:46:08;;;;;;;14.48;7.22;;;;;;;;;;5092747;28;20020;-60
2023/06/10 08:48:36;;;;;;;9.80;7.20;;;;;;;;;;5116698;28;20020;-60
2023/06/10 08:51:05;;;;;;;10.10;7.13;;;;;;;;;;5100711;28;20026;-61
2023/06/10 08:53:34;;;;;;;10.87;8.27;;;;;;;;;;5075681;28;20028;-61
2023/06/10 08:56:03;;;;;;;11.30;7.67;;;;;;;;;;5075856;28;20027;-60
2023/06/10 08:58:31;;;;;;;8.90;6.77;;;;;;;;;;5114920;28;20485;-61
2023/06/10 09:00:59;;;;;;;13.93;8.47;;;;;;;;;;5107489;28;20111;-61
2023/06/10 09:03:26;;;;;;;12.07;7.40;;;;;;;;;;5091991;28;20441;-60
2023/06/10 09:05:55;;;;;;;12.57;8.00;;;;;;;;;;5090739;28;20024;-60
2023/06/10 09:08:21;;;;;;;8.53;6.80;;;;;;;;;;5108448;28;20027;-61
2023/06/10 09:10:48;;;;;;;11.33;7.00;;;;;;;;;;5113869;28;20030;-61
2023/06/10 09:13:18;;;;;;;8.77;7.13;;;;;;;;;;5098842;28;20054;-60
2023/06/10 09:15:45;;;;;;;11.07;7.20;;;;;;;;;;5095932;28;20028;-60
2023/06/10 09:18:12;;;;;;;11.17;8.27;;;;;;;;;;5110874;28;20031;-60
2023/06/10 09:20:40;;;;;;;10.03;7.40;;;;;;;;;;5113572;28;20019;-61
2023/06/10 09:23:06;;;;;;;9.17;7.67;;;;;;;;;;5098315;28;20499;-60
2023/06/10 09:25:38;;;;;;;8.33;6.77;;;;;;;;;;5111150;28;20106;-60
2023/06/10 09:28:05;;;;;;;10.40;8.37;;;;;;;;;;5097149;28;20028;-60
2023/06/10 09:30:35;;;;;;;10.93;8.17;;;;;;;;;;5090340;28;20146;-60
2023/06/10 09:33:03;;;;;;;9.87;7.20;;;;;;;;;;5101220;28;20028;-60
2023/06/10 09:35:31;;;;;;;24.07;7.60;;;;;;;;;;5095525;28;20030;-60
2023/06/10 09:37:58;;;;;;;10.13;7.30;;;;;;;;;;5107463;28;20031;-60
2023/06/10 09:40:25;;;;;;;13.23;7.20;;;;;;;;;;5113774;28;20027;-60
2023/06/10 09:42:57;;;;;;;9.77;7.57;;;;;;;;;;5100619;28;20036;-60
2023/06/10 09:45:24;;;;;;;13.97;7.30;;;;;;;;;;5091856;28;20036;-60
2023/06/10 09:47:55;;;;;;;14.90;8.47;;;;;;;;;;5110666;28;20027;-60
2023/06/10 09:50:22;;;;;;;22.43;8.27;;;;;;;;;;5109018;28;20024;-60
2023/06/10 09:52:49;;;;;;;11.30;8.87;;;;;;;;;;5100430;28;20027;-61
2023/06/10 09:55:16;;;;;;;9.50;8.03;;;;;;;;;;5114910;28;20607;-61
2023/06/10 09:57:45;;;;;;;11.20;7.90;;;;;;;;;;5114696;28;20069;-60
2023/06/10 10:00:13;;;;;;;6.80;5.70;;;;;;;;;;5115442;28;20077;-60
2023/06/10 10:02:47;;;;;;;10.23;7.57;;;;;;;;;;5098590;28;20494;-60
2023/06/10 10:05:15;;;;;;;11.82;8.18;;;;;;;;;;5103265;28;20048;-60
2023/06/10 10:07:42;;;;;;;11.10;8.17;;;;;;;;;;5089814;28;20498;-60
2023/06/10 10:10:09;;;;;;;8.80;7.43;;;;;;;;;;5099881;28;20027;-61
2023/06/10 10:12:37;;;;;;;23.47;10.27;;;;;;;;;;5108276;28;20093;-60
2023/06/10 10:15:04;;;;;;;8.90;7.30;;;;;;;;;;5096627;28;20127;-60
2023/06/10 10:17:31;;;;;;;19.93;8.23;;;;;;;;;;5114585;28;20031;-60
2023/06/10 10:20:03;;;;;;;8.43;6.53;;;;;;;;;;5106951;28;20371;-61
2023/06/10 10:22:32;;;;;;;11.63;7.97;;;;;;;;;;5094667;28;20059;-60
2023/06/10 10:25:02;;;;;;;14.07;9.43;;;;;;;;;;5102634;28;20027;-60
2023/06/10 10:27:32;;;;;;;9.50;8.07;;;;;;;;;;5094551;28;20498;-61
2023/06/10 10:29:59;;;;;;;11.60;8.50;;;;;;;;;;5096154;28;20020;-60
2023/06/10 10:32:29;;;;;;;9.87;7.40;;;;;;;;;;5109705;28;20027;-60
2023/06/10 10:35:08;;;;;;;10.27;8.47;;;;;;;;;;5103319;28;20458;-60
2023/06/10 10:37:36;;;;;;;15.70;7.57;;;;;;;;;;5109605;28;20378;-60
2023/06/10 10:40:04;;;;;;;10.20;7.60;;;;;;;;;;5107343;28;20023;-60
2023/06/10 10:42:31;;;;;;;12.70;8.33;;;;;;;;;;5093809;28;20036;-60
2023/06/10 10:44:58;;;;;;;13.70;8.90;;;;;;;;;;5096819;28;20024;-60
2023/06/10 10:47:30;;;;;;;8.63;7.37;;;;;;;;;;5094055;28;20051;-60
2023/06/10 10:49:59;;;;;;;11.63;8.90;;;;;;;;;;5098731;28;20015;-60
2023/06/10 10:52:26;;;;;;;10.90;8.27;;;;;;;;;;5109273;28;20024;-60
2023/06/10 10:54:54;;;;;;;11.00;8.27;;;;;;;;;;5107299;28;20092;-60
2023/06/10 10:57:23;;;;;;;10.47;7.57;;;;;;;;;;5107169;28;20023;-61
2023/06/10 10:59:52;;;;;;;19.80;9.87;;;;;;;;;;5106144;28;20057;-60
2023/06/10 11:02:19;;;;;;;6.60;5.80;;;;;;;;;;5093170;28;20032;-60
2023/06/10 11:04:49;;;;;;;14.83;8.20;;;;;;;;;;5098288;28;20036;-61
2023/06/10 11:07:21;;;;;;;13.67;7.83;;;;;;;;;;5092478;28;20449;-60
2023/06/10 11:10:01;;;;;;;8.77;6.37;;;;;;;;;;5112745;28;20027;-60
2023/06/10 11:12:54;;;;;;;10.90;8.03;;;;;;;;;;5112803;28;20436;-60
2023/06/10 11:15:26;;;;;;;18.03;8.57;;;;;;;;;;5085150;28;20514;-60
2023/06/10 11:18:11;;;;;;;13.73;8.93;;;;;;;;;;5091255;28;20424;-61
2023/06/10 11:20:37;;;;;;;;;;;;;;;;;;5109388;28;20023;-61
2023/06/10 11:23:04;;;;;;;16.67;9.30;;;;;;;;;;5104482;28;19919;-60
2023/06/10 11:25:40;;;;;;;11.57;7.63;;;;;;;;;;5093409;28;20024;-60
2023/06/10 11:28:19;;;;;;;10.07;6.37;;;;;;;;;;5098074;28;20027;-60
2023/06/10 11:30:46;;;;;;;11.53;8.23;;;;;;;;;;5113652;28;20435;-60
2023/06/10 11:33:17;;;;;;;11.93;7.83;;;;;;;;;;5108425;28;20103;-60
2023/06/10 11:35:44;;;;;;;9.47;6.23;;;;;;;;;;5091048;28;20107;-60
2023/06/10 11:38:11;;;;;;;7.07;5.90;;;;;;;;;;5100411;28;20028;-60
2023/06/10 11:40:38;;;;;;;9.47;7.53;;;;;;;;;;5087881;28;20039;-60
2023/06/10 11:43:05;;;;;;;8.93;6.83;;;;;;;;;;5090390;28;20550;-60
2023/06/10 11:45:32;;;;;;;12.30;9.73;;;;;;;;;;5109356;28;20050;-60
2023/06/10 11:47:59;;;;;;;14.30;8.23;;;;;;;;;;5102484;28;20016;-60
2023/06/10 11:50:44;;;;;;;9.53;8.23;;;;;;;;;;5072814;28;20029;-60
2023/06/10 11:53:10;;;;;;;13.35;8.80;;;;;;;;;;5090908;28;20028;-60
2023/06/10 11:55:44;;;;;;;12.03;8.37;;;;;;;;;;5113158;28;20106;-60
2023/06/10 11:58:17;;;;;;;14.47;9.60;;;;;;;;;;5109189;28;20031;-60
2023/06/10 12:00:56;;;;;;;10.80;8.10;;;;;;;;;;5108181;28;20080;-60
2023/06/10 12:03:23;;;;;;;19.97;9.03;;;;;;;;;;5098114;28;20044;-60
2023/06/10 12:06:02;;;;;;;10.07;7.80;;;;;;;;;;5087460;28;20085;-60
2023/06/10 12:08:29;;;;;;;12.33;9.53;;;;;;;;;;5104092;28;20047;-60
2023/06/10 12:10:57;;;;;;;12.90;7.90;;;;;;;;;;5099930;28;20070;-60
2023/06/10 12:13:24;;;;;;;21.60;10.13;;;;;;;;;;5112520;28;20096;-61
2023/06/10 12:15:51;;;;;;;12.17;8.53;;;;;;;;;;5099603;28;20032;-60
2023/06/10 12:18:18;;;;;;;10.13;8.60;;;;;;;;;;5096308;28;20031;-60
2023/06/10 12:20:45;;;;;;;12.90;9.83;;;;;;;;;;5099055;28;20072;-61
2023/06/10 12:23:12;;;;;;;11.40;8.87;;;;;;;;;;5087090;28;20032;-60
2023/06/10 12:25:41;;;;;;;15.20;9.13;;;;;;;;;;5096605;28;20115;-60
2023/06/10 12:28:11;;;;;;;11.33;8.57;;;;;;;;;;5107714;28;20413;-60
2023/06/10 12:30:37;;;;;;;14.80;7.90;;;;;;;;;;5098338;28;20016;-60
2023/06/10 12:33:04;;;;;;;9.10;6.80;;;;;;;;;;5092561;28;20024;-60
2023/06/10 12:35:31;;;;;;;12.60;9.53;;;;;;;;;;5099603;28;20398;-60
2023/06/10 12:38:03;;;;;;;8.30;7.23;;;;;;;;;;5112538;28;20355;-60
2023/06/10 12:40:33;;;;;;;11.13;6.57;;;;;;;;;;5103593;28;20034;-60
2023/06/10 12:43:01;;;;;;;9.03;7.63;;;;;;;;;;5109974;28;20032;-60
2023/06/10 12:45:32;;;;;;;14.67;7.43;;;;;;;;;;5101561;28;20028;-61
2023/06/10 12:48:25;;;;;;;12.43;8.40;;;;;;;;;;5087095;28;20463;-60
2023/06/10 12:50:55;;;;;;;11.50;8.60;;;;;;;;;;5087581;28;20037;-61
2023/06/10 12:53:23;;;;;;;12.97;9.73;;;;;;;;;;5089934;28;20017;-60
2023/06/10 12:55:50;;;;;;;16.17;9.83;;;;;;;;;;5099590;28;20024;-60
2023/06/10 12:58:17;;;;;;;22.07;11.13;;;;;;;;;;5109243;28;20494;-60
2023/06/10 13:00:44;;;;;;;32.13;10.37;;;;;;;;;;5100883;28;20501;-60
2023/06/10 13:03:11;;;;;;;15.70;8.83;;;;;;;;;;5111392;28;20039;-60
2023/06/10 13:05:38;;;;;;;11.03;9.37;;;;;;;;;;5108406;28;20035;-60
2023/06/10 13:08:14;;;;;;;10.87;8.47;;;;;;;;;;5089456;28;20044;-60
2023/06/10 13:10:41;;;;;;;10.83;8.60;;;;;;;;;;5091992;28;20028;-60
2023/06/10 13:13:09;;;;;;;11.97;9.17;;;;;;;;;;5090128;28;20479;-61
2023/06/10 13:15:36;;;;;;;10.80;7.07;;;;;;;;;;5089450;28;20529;-60
2023/06/10 13:18:05;;;;;;;13.83;8.47;;;;;;;;;;5107552;28;20035;-61
2023/06/10 13:20:32;;;;;;;10.27;8.67;;;;;;;;;;5111102;28;20020;-60
2023/06/10 13:22:59;;;;;;;10.93;8.87;;;;;;;;;;5106249;28;20240;-60
2023/06/10 13:25:25;;;;;;;10.60;8.10;;;;;;;;;;5112357;28;20046;-61
2023/06/10 13:27:52;;;;;;;12.17;8.57;;;;;;;;;;5097712;28;20077;-60
2023/06/10 13:30:19;;;;;;;14.77;9.47;;;;;;;;;;5092476;28;20039;-60
2023/06/10 13:32:46;;;;;;;9.53;6.83;;;;;;;;;;5090335;28;20020;-60
2023/06/10 13:35:13;;;;;;;6.30;5.33;;;;;;;;;;5097936;28;20028;-60
2023/06/10 13:37:40;;;;;;;9.63;7.83;;;;;;;;;;5112313;28;20074;-60
2023/06/10 13:40:07;;;;;;;11.37;6.03;;;;;;;;;;5109074;28;20027;-60
2023/06/10 13:42:35;;;;;;;8.70;7.20;;;;;;;;;;5111433;28;20056;-60
2023/06/10 13:45:03;;;;;;;12.43;8.63;;;;;;;;;;5110567;28;20108;-61
2023/06/10 13:47:30;;;;;;;10.10;7.83;;;;;;;;;;5095280;28;20032;-60
2023/06/10 13:49:57;;;;;;;13.33;6.97;;;;;;;;;;5094025;28;20444;-61
2023/06/10 13:52:24;;;;;;;11.20;7.33;;;;;;;;;;5100891;28;20500;-60
2023/06/10 13:54:50;;;;;;;11.47;8.17;;;;;;;;;;5107459;28;20535;-60
2023/06/10 13:57:17;;;;;;;9.23;8.03;;;;;;;;;;5090080;28;20451;-60
2023/06/10 13:59:44;;;;;;;12.77;9.07;;;;;;;;;;5091510;28;20510;-60
2023/06/10 14:02:11;;;;;;;16.43;9.20;;;;;;;;;;5108712;28;20501;-60
2023/06/10 14:04:38;;;;;;;12.67;8.10;;;;;;;;;;5095100;28;20028;-60
2023/06/10 14:07:05;;;;;;;11.83;8.63;;;;;;;;;;5095149;28;20035;-60
2023/06/10 14:09:32;;;;;;;9.97;7.43;;;;;;;;;;5102463;28;20031;-61
2023/06/10 14:11:58;;;;;;;10.93;8.47;;;;;;;;;;5092789;28;20059;-61
2023/06/10 14:14:25;;;;;;;16.33;7.53;;;;;;;;;;5094057;28;20539;-60
2023/06/10 14:16:52;;;;;;;17.43;8.57;;;;;;;;;;5090727;28;20035;-61
2023/06/10 14:19:19;;;;;;;16.37;9.80;;;;;;;;;;5090133;28;20028;-61
2023/06/10 14:21:47;;;;;;;12.37;9.37;;;;;;;;;;5103844;28;20024;-61
2023/06/10 14:24:13;;;;;;;15.00;10.20;;;;;;;;;;5095861;28;20455;-61
2023/06/10 14:26:40;;;;;;;15.00;8.47;;;;;;;;;;5094742;28;20027;-60
2023/06/10 14:29:08;;;;;;;11.73;9.33;;;;;;;;;;5106528;28;20055;-61
2023/06/10 14:31:35;;;;;;;13.13;8.03;;;;;;;;;;5114925;28;20027;-60
2023/06/10 14:34:02;;;;;;;11.00;8.17;;;;;;;;;;5109393;28;20028;-61
2023/06/10 14:36:28;;;;;;;9.77;7.67;;;;;;;;;;5109611;28;20031;-61
2023/06/10 14:38:56;;;;;;;14.70;7.37;;;;;;;;;;5098542;28;20040;-61
2023/06/10 14:41:23;;;;;;;10.00;7.87;;;;;;;;;;5089300;28;20027;-61
2023/06/10 14:43:50;;;;;;;8.77;6.97;;;;;;;;;;5090986;28;20032;-61